Aviation Digital Data Service (ADDS)

Output produced by METARs form (1139 UTC 21 April 2018)
found at http://aviationweather.gov/adds/metars/
 
METAR text: KCVC 211135Z AUTO 07003KT 10SM CLR 07/03 A3034 RMK AO2 PNO
Conditions at: KCVC (COVINGTON MUNI , GA, US) observed 1135 UTC 21 April 2018
Temperature: 7.0°C (45°F)
Dewpoint: 3.0°C (37°F) [RH = 76%]
Pressure (altimeter): 30.34 inches Hg (1027.5 mb)
Winds: from the ENE (70 degrees) at 3 MPH (3 knots; 1.6 m/s)
Visibility: 10 or more miles (16+ km)
Ceiling: at least 12,000 feet AGL
Clouds: sky clear below 12,000 feet AGL
Weather: automated observation with no human augmentation;
there may or may not be significant weather present at this time